createdAt,value
2023-01-08T00:02:26.221Z,7.38
2023-01-08T00:04:52.758Z,7.40
2023-01-08T00:07:19.385Z,7.34
2023-01-08T00:09:45.938Z,7.36
2023-01-08T00:12:12.521Z,7.34
2023-01-08T00:14:39.051Z,7.38
2023-01-08T00:17:05.616Z,7.35
2023-01-08T00:19:32.184Z,7.35
2023-01-08T00:21:58.789Z,7.38
2023-01-08T00:24:25.444Z,7.42
2023-01-08T00:26:52.003Z,7.44
2023-01-08T00:29:18.675Z,7.42
2023-01-08T00:31:45.617Z,7.41
2023-01-08T00:34:12.230Z,7.33
2023-01-08T00:36:39.169Z,7.32
2023-01-08T00:39:05.823Z,7.37
2023-01-08T00:41:32.425Z,7.35
2023-01-08T00:43:59.017Z,7.31
2023-01-08T00:46:25.715Z,7.21
2023-01-08T00:48:52.441Z,7.29
2023-01-08T00:51:19.059Z,7.18
2023-01-08T00:53:45.649Z,7.18
2023-01-08T00:56:12.347Z,7.12
2023-01-08T00:58:39.278Z,7.25
2023-01-08T01:01:13.400Z,7.35
2023-01-08T01:03:40.880Z,7.30
2023-01-08T01:06:08.379Z,7.28
2023-01-08T01:08:35.407Z,7.27
2023-01-08T01:11:10.483Z,7.26
2023-01-08T01:13:37.522Z,7.23
2023-01-08T01:16:04.288Z,7.13
2023-01-08T01:18:31.310Z,7.14
2023-01-08T01:20:58.347Z,7.13
2023-01-08T01:23:25.390Z,7.22
2023-01-08T01:25:52.021Z,7.20
2023-01-08T01:28:18.767Z,7.30
2023-01-08T01:30:45.447Z,7.33
2023-01-08T01:33:12.127Z,7.27
2023-01-08T01:35:38.669Z,7.22
2023-01-08T01:38:05.244Z,7.22
2023-01-08T01:40:31.804Z,7.25
2023-01-08T01:42:58.405Z,7.20
2023-01-08T01:45:27.976Z,7.20
2023-01-08T01:47:59.832Z,7.18
2023-01-08T01:50:38.009Z,7.22
2023-01-08T01:53:18.074Z,7.31
2023-01-08T01:55:45.821Z,7.32
2023-01-08T01:58:32.215Z,7.38
2023-01-08T02:01:04.557Z,7.43
2023-01-08T02:03:35.561Z,7.45
2023-01-08T02:06:36.087Z,7.45
2023-01-08T02:09:06.961Z,7.43
2023-01-08T02:11:49.019Z,7.43
2023-01-08T02:17:18.250Z,6.80
2023-01-08T02:19:53.359Z,6.68
2023-01-08T02:22:47.936Z,6.61
2023-01-08T02:25:45.375Z,6.59
2023-01-08T02:30:49.982Z,6.57
2023-01-08T02:33:16.567Z,6.45
2023-01-08T02:35:52.395Z,6.41
2023-01-08T02:38:18.948Z,6.35
2023-01-08T02:41:05.645Z,6.41
2023-01-08T02:43:38.428Z,6.45
2023-01-08T02:46:09.471Z,6.44
2023-01-08T02:48:47.390Z,6.43
2023-01-08T02:51:16.708Z,6.48
2023-01-08T02:53:47.262Z,6.49
2023-01-08T02:56:18.142Z,6.45
2023-01-08T02:58:46.998Z,6.56
2023-01-08T03:01:16.552Z,6.66
2023-01-08T03:03:46.965Z,6.75
2023-01-08T03:06:17.552Z,6.79
2023-01-08T03:08:47.759Z,6.82
2023-01-08T03:11:17.465Z,6.93
2023-01-08T03:14:15.826Z,6.89
2023-01-08T03:16:53.072Z,6.94
2023-01-08T03:19:23.908Z,6.96
2023-01-08T03:21:52.362Z,6.96
2023-01-08T03:24:26.926Z,7.06
2023-01-08T03:29:30.087Z,7.10
2023-01-08T03:32:02.204Z,7.14
2023-01-08T03:34:30.967Z,7.03
2023-01-08T03:37:00.580Z,7.05
2023-01-08T03:39:43.541Z,7.15
2023-01-08T03:42:12.432Z,7.16
2023-01-08T03:44:39.333Z,7.17
2023-01-08T03:47:08.809Z,7.22
2023-01-08T03:49:36.505Z,7.21
2023-01-08T03:52:03.177Z,7.27
2023-01-08T03:57:06.357Z,7.23
2023-01-08T03:59:32.885Z,7.30
2023-01-08T04:01:59.521Z,7.25
2023-01-08T04:04:26.220Z,7.19
2023-01-08T04:06:53.742Z,7.20
2023-01-08T04:09:20.605Z,7.07
2023-01-08T04:11:47.154Z,7.04
2023-01-08T04:14:13.746Z,7.13
2023-01-08T04:16:40.267Z,7.11
2023-01-08T04:19:06.863Z,7.11
2023-01-08T04:21:33.447Z,7.11
2023-01-08T04:23:59.985Z,7.15
2023-01-08T04:26:26.613Z,7.17
2023-01-08T04:28:53.125Z,7.18
2023-01-08T04:31:19.811Z,7.11
2023-01-08T04:33:46.422Z,7.16
2023-01-08T04:36:13.260Z,7.20
2023-01-08T04:38:39.841Z,7.23
2023-01-08T04:41:06.594Z,7.11
2023-01-08T04:43:33.612Z,7.22
2023-01-08T04:46:01.618Z,7.24
2023-01-08T04:51:03.682Z,7.26
2023-01-08T04:56:10.046Z,7.21
2023-01-08T04:58:38.056Z,7.26
2023-01-08T05:01:19.490Z,7.26
2023-01-08T05:03:46.304Z,7.27
2023-01-08T05:06:13.057Z,7.32
2023-01-08T05:08:39.645Z,7.39
2023-01-08T05:11:06.218Z,7.43
2023-01-08T05:13:32.791Z,7.45
2023-01-08T05:16:02.290Z,7.46
2023-01-08T05:18:29.775Z,7.48
2023-01-08T05:21:01.136Z,7.52
2023-01-08T05:23:28.369Z,7.60
2023-01-08T05:25:58.508Z,7.62
2023-01-08T05:28:25.816Z,7.76
2023-01-08T05:30:52.428Z,7.88
2023-01-08T05:33:19.273Z,8.06
2023-01-08T05:35:46.238Z,8.21
2023-01-08T05:38:12.912Z,8.35
2023-01-08T05:40:39.625Z,8.46
2023-01-08T05:43:06.223Z,8.60
2023-01-08T05:45:33.391Z,8.66
2023-01-08T05:48:00.282Z,8.72
2023-01-08T05:50:26.931Z,8.75
2023-01-08T05:52:53.535Z,8.83
2023-01-08T05:55:20.069Z,8.92
2023-01-08T05:57:46.738Z,8.98
2023-01-08T06:00:14.042Z,8.97
2023-01-08T06:02:40.698Z,8.99
2023-01-08T06:05:07.750Z,8.96
2023-01-08T06:07:34.344Z,8.97
2023-01-08T06:10:00.927Z,9.03
2023-01-08T06:12:27.438Z,8.99
2023-01-08T06:14:54.053Z,8.99
2023-01-08T06:17:20.643Z,8.99
2023-01-08T06:19:48.405Z,9.01
2023-01-08T06:22:14.987Z,8.96
2023-01-08T06:24:41.531Z,9.00
2023-01-08T06:29:39.365Z,8.95
2023-01-08T06:32:06.112Z,8.99
2023-01-08T06:34:32.651Z,8.99
2023-01-08T06:36:59.229Z,8.99
2023-01-08T06:39:25.839Z,9.02
2023-01-08T06:41:52.358Z,9.04
2023-01-08T06:44:18.996Z,9.03
2023-01-08T06:49:23.937Z,9.08
2023-01-08T06:51:50.536Z,9.04
2023-01-08T06:54:17.190Z,9.14
2023-01-08T06:56:53.380Z,9.15
2023-01-08T06:59:21.069Z,9.20
2023-01-08T07:01:47.743Z,9.32
2023-01-08T07:04:14.422Z,9.34
2023-01-08T07:06:41.072Z,9.37
2023-01-08T07:09:07.711Z,9.36
2023-01-08T07:11:34.330Z,9.32
2023-01-08T07:14:00.911Z,9.27
2023-01-08T07:16:27.606Z,9.25
2023-01-08T07:18:54.219Z,9.20
2023-01-08T07:21:22.625Z,9.18
2023-01-08T07:23:49.847Z,9.16
2023-01-08T07:26:16.861Z,9.17
2023-01-08T07:28:44.300Z,9.09
2023-01-08T07:31:10.978Z,9.08
2023-01-08T07:33:37.535Z,9.10
2023-01-08T07:36:05.759Z,9.15
2023-01-08T07:38:32.413Z,9.18
2023-01-08T07:40:59.234Z,9.16
2023-01-08T07:43:26.544Z,9.09
2023-01-08T07:45:53.281Z,9.12
2023-01-08T07:48:19.974Z,9.08
2023-01-08T07:50:46.662Z,9.11
2023-01-08T07:53:13.939Z,9.01
2023-01-08T07:55:40.625Z,8.97
2023-01-08T07:58:14.662Z,8.96
2023-01-08T08:00:42.005Z,8.92
2023-01-08T08:03:13.145Z,8.95
2023-01-08T08:05:39.816Z,8.97
2023-01-08T08:08:10.908Z,9.03
2023-01-08T08:10:38.086Z,8.98
2023-01-08T08:13:04.948Z,9.01
2023-01-08T08:15:32.628Z,8.98
2023-01-08T08:17:59.389Z,8.96
2023-01-08T08:20:26.145Z,8.98
2023-01-08T08:22:53.242Z,8.95
2023-01-08T08:25:19.854Z,8.94
2023-01-08T08:27:46.443Z,8.95
2023-01-08T08:30:13.771Z,8.94
2023-01-08T08:32:40.325Z,8.95
2023-01-08T08:35:07.307Z,8.93
2023-01-08T08:37:33.916Z,8.97
2023-01-08T08:40:00.560Z,9.00
2023-01-08T08:42:27.140Z,8.96
2023-01-08T08:44:53.736Z,9.02
2023-01-08T08:47:20.295Z,9.34
2023-01-08T08:49:46.859Z,9.10
2023-01-08T08:52:13.421Z,9.08
2023-01-08T08:54:41.840Z,9.05
2023-01-08T08:57:09.467Z,9.03
2023-01-08T08:59:36.354Z,9.10
2023-01-08T09:02:03.095Z,9.05
2023-01-08T09:04:31.813Z,9.07
2023-01-08T09:06:58.800Z,9.01
2023-01-08T09:09:26.180Z,9.05
2023-01-08T09:11:53.492Z,9.05
2023-01-08T09:14:20.982Z,9.09
2023-01-08T09:16:47.848Z,9.10
2023-01-08T09:19:14.599Z,9.06
2023-01-08T09:21:41.188Z,9.04
2023-01-08T09:24:08.310Z,9.02
2023-01-08T09:26:34.887Z,9.02
2023-01-08T09:29:01.631Z,9.07
2023-01-08T09:31:28.282Z,9.06
2023-01-08T09:33:54.858Z,9.05
2023-01-08T09:36:21.420Z,9.11
2023-01-08T09:38:47.984Z,9.15
2023-01-08T09:41:29.107Z,9.22
2023-01-08T09:43:58.457Z,9.18
2023-01-08T09:46:27.909Z,9.27
2023-01-08T09:48:59.174Z,9.31
2023-01-08T09:51:36.560Z,9.24
2023-01-08T09:54:04.506Z,9.26
2023-01-08T09:56:33.210Z,9.25
2023-01-08T09:59:02.480Z,9.24
2023-01-08T10:01:31.977Z,9.37
2023-01-08T10:07:21.519Z,9.39
2023-01-08T10:09:50.342Z,9.32
2023-01-08T10:12:26.647Z,9.35
2023-01-08T10:14:55.251Z,9.48
2023-01-08T10:17:37.838Z,9.46
2023-01-08T10:20:31.543Z,9.42
2023-01-08T10:23:10.292Z,9.40
2023-01-08T10:25:49.115Z,9.45
2023-01-08T10:28:38.211Z,9.39
2023-01-08T10:31:08.067Z,9.46
2023-01-08T10:36:24.055Z,9.62
2023-01-08T10:38:59.350Z,9.59
2023-01-08T10:41:27.209Z,9.58
2023-01-08T10:44:01.796Z,9.64
2023-01-08T10:46:32.011Z,9.64
2023-01-08T10:49:01.314Z,9.79
2023-01-08T10:51:30.425Z,9.74
2023-01-08T10:54:13.496Z,9.72
2023-01-08T10:56:42.798Z,9.72
2023-01-08T10:59:23.603Z,9.76
2023-01-08T11:01:52.820Z,9.81
2023-01-08T11:04:27.497Z,9.80
2023-01-08T11:06:59.837Z,9.84
2023-01-08T11:09:31.055Z,9.78
2023-01-08T11:11:58.659Z,9.83
2023-01-08T11:14:35.562Z,9.87
2023-01-08T11:17:10.154Z,10.02
2023-01-08T11:19:37.062Z,10.04
2023-01-08T11:24:53.598Z,10.07
2023-01-08T11:27:29.834Z,10.06
2023-01-08T11:30:19.706Z,10.07
2023-01-08T11:32:58.086Z,10.13
2023-01-08T11:35:31.364Z,10.13
2023-01-08T11:38:00.151Z,10.14
2023-01-08T11:40:44.832Z,10.23
2023-01-08T11:43:37.717Z,10.22
2023-01-08T11:49:06.545Z,10.27
2023-01-08T11:51:54.224Z,10.33
2023-01-08T11:54:46.106Z,10.38
2023-01-08T11:57:53.245Z,10.40
2023-01-08T12:00:22.584Z,10.50
2023-01-08T12:02:58.650Z,10.46
2023-01-08T12:05:27.954Z,10.45
2023-01-08T12:08:01.980Z,10.52
2023-01-08T12:10:43.459Z,10.47
2023-01-08T12:13:39.346Z,10.52
2023-01-08T12:16:37.629Z,10.47
2023-01-08T12:19:13.958Z,10.42
2023-01-08T12:24:55.561Z,10.39
2023-01-08T12:27:56.237Z,10.44
2023-01-08T12:30:51.479Z,10.38
2023-01-08T12:36:29.644Z,10.36
2023-01-08T12:39:04.998Z,10.33
2023-01-08T12:41:35.037Z,10.36
2023-01-08T12:44:04.398Z,10.39
2023-01-08T12:46:34.218Z,10.43
2023-01-08T12:49:02.437Z,10.41
2023-01-08T12:51:39.261Z,10.41
2023-01-08T12:54:16.723Z,10.41
2023-01-08T12:57:16.911Z,10.42
2023-01-08T12:59:48.084Z,10.48
2023-01-08T13:02:25.980Z,10.47
2023-01-08T13:04:52.724Z,10.48
2023-01-08T13:07:44.466Z,10.49
2023-01-08T13:10:26.286Z,10.50
2023-01-08T13:12:55.210Z,10.49
2023-01-08T13:15:25.424Z,10.47
2023-01-08T13:17:54.926Z,10.50
2023-01-08T13:20:27.319Z,10.47
2023-01-08T13:22:55.978Z,10.47
2023-01-08T13:25:27.671Z,10.38
2023-01-08T13:27:54.563Z,10.41
2023-01-08T13:30:48.458Z,10.53
2023-01-08T13:33:43.425Z,10.39
2023-01-08T13:36:12.932Z,10.42
2023-01-08T13:38:44.359Z,10.36
2023-01-08T13:41:40.639Z,10.46
2023-01-08T13:44:26.058Z,10.37
2023-01-08T13:47:02.053Z,10.42
2023-01-08T13:49:51.457Z,10.34
2023-01-08T13:52:34.727Z,10.37
2023-01-08T13:55:05.745Z,10.39
2023-01-08T13:57:43.693Z,10.51
2023-01-08T14:00:19.349Z,10.58
2023-01-08T14:02:50.688Z,10.60
2023-01-08T14:05:22.241Z,10.64
2023-01-08T14:07:49.226Z,11.29
2023-01-08T14:10:16.758Z,12.23
2023-01-08T14:12:44.007Z,12.02
2023-01-08T14:15:20.147Z,12.60
2023-01-08T14:20:29.032Z,12.24
2023-01-08T14:22:56.053Z,11.79
2023-01-08T14:25:23.161Z,11.66
2023-01-08T14:33:12.960Z,11.67
2023-01-08T14:35:40.423Z,11.44
2023-01-08T14:38:13.419Z,11.44
2023-01-08T14:40:44.649Z,11.26
2023-01-08T14:43:17.107Z,11.17
2023-01-08T14:45:52.639Z,11.16
2023-01-08T14:48:43.506Z,11.12
2023-01-08T14:51:14.629Z,11.15
2023-01-08T14:53:46.774Z,11.05
2023-01-08T14:56:16.890Z,11.02
2023-01-08T14:58:45.718Z,10.98
2023-01-08T15:01:25.465Z,11.01
2023-01-08T15:04:04.535Z,10.97
2023-01-08T15:06:32.655Z,10.93
2023-01-08T15:09:00.458Z,10.95
2023-01-08T15:11:31.284Z,10.91
2023-01-08T15:13:58.655Z,10.90
2023-01-08T15:16:32.285Z,11.13
2023-01-08T15:19:14.007Z,11.12
2023-01-08T15:21:47.279Z,10.99
2023-01-08T15:24:32.629Z,10.95
2023-01-08T15:27:05.364Z,10.88
2023-01-08T15:29:37.214Z,10.90
2023-01-08T15:32:13.871Z,10.83
2023-01-08T15:34:47.016Z,10.82
2023-01-08T15:39:58.042Z,10.76
2023-01-08T15:42:48.796Z,10.77
2023-01-08T15:45:21.374Z,10.67
2023-01-08T15:47:48.433Z,10.65
2023-01-08T15:50:15.216Z,10.55
2023-01-08T15:52:43.644Z,10.39
2023-01-08T15:55:21.352Z,10.41
2023-01-08T15:57:48.170Z,10.18
2023-01-08T16:00:20.414Z,9.91
2023-01-08T16:02:49.706Z,9.80
2023-01-08T16:05:17.864Z,9.69
2023-01-08T16:07:46.301Z,9.74
2023-01-08T16:10:14.128Z,9.79
2023-01-08T16:12:40.708Z,9.82
2023-01-08T16:15:10.232Z,9.88
2023-01-08T16:17:37.331Z,9.85
2023-01-08T16:20:05.439Z,9.75
2023-01-08T16:22:32.113Z,9.74
2023-01-08T16:24:58.792Z,9.80
2023-01-08T16:27:25.396Z,9.82
2023-01-08T16:29:52.007Z,9.87
2023-01-08T16:32:18.617Z,9.88
2023-01-08T16:34:45.170Z,9.87
2023-01-08T16:37:11.766Z,9.97
2023-01-08T16:39:38.687Z,10.04
2023-01-08T16:42:05.838Z,10.11
2023-01-08T16:47:06.893Z,10.28
2023-01-08T16:49:33.780Z,10.33
2023-01-08T16:52:00.440Z,10.22
2023-01-08T16:54:27.573Z,10.26
2023-01-08T16:56:54.584Z,10.29
2023-01-08T16:59:23.741Z,10.20
2023-01-08T17:04:32.976Z,9.91
2023-01-08T17:06:59.593Z,9.93
2023-01-08T17:09:26.213Z,9.94
2023-01-08T17:11:52.883Z,9.85
2023-01-08T17:14:19.559Z,9.87
2023-01-08T17:16:47.675Z,9.73
2023-01-08T17:19:14.384Z,9.79
2023-01-08T17:21:41.614Z,9.73
2023-01-08T17:24:09.131Z,9.60
2023-01-08T17:26:35.921Z,9.70
2023-01-08T17:29:02.475Z,9.57
2023-01-08T17:31:29.202Z,9.66
2023-01-08T17:33:55.827Z,9.69
2023-01-08T17:36:25.423Z,9.79
2023-01-08T17:38:54.849Z,9.86
2023-01-08T17:41:55.001Z,9.78
2023-01-08T17:44:21.766Z,9.81
2023-01-08T17:46:48.487Z,9.85
2023-01-08T17:49:16.576Z,9.82
2023-01-08T17:51:43.687Z,9.86
2023-01-08T17:54:11.743Z,9.76
2023-01-08T17:56:38.533Z,9.69
2023-01-08T17:59:05.514Z,9.66
2023-01-08T18:01:32.405Z,9.65
2023-01-08T18:03:59.116Z,9.62
2023-01-08T18:06:25.752Z,9.63
2023-01-08T18:08:52.408Z,9.69
2023-01-08T18:11:19.111Z,9.59
2023-01-08T18:13:45.692Z,9.57
2023-01-08T18:16:14.168Z,9.54
2023-01-08T18:18:40.852Z,9.59
2023-01-08T18:21:07.668Z,9.53
2023-01-08T18:23:34.459Z,9.48
2023-01-08T18:26:06.147Z,9.45
2023-01-08T18:28:33.007Z,9.48
2023-01-08T18:31:00.123Z,9.46
2023-01-08T18:33:27.582Z,9.49
2023-01-08T18:35:54.265Z,9.41
2023-01-08T18:38:20.858Z,9.29
2023-01-08T18:40:48.547Z,9.35
2023-01-08T18:43:15.134Z,9.32
2023-01-08T18:45:41.681Z,9.97
2023-01-08T18:48:09.643Z,10.35
2023-01-08T18:50:40.627Z,10.28
2023-01-08T18:53:08.703Z,9.98
2023-01-08T18:55:37.055Z,9.84
2023-01-08T18:58:04.770Z,9.71
2023-01-08T19:00:31.632Z,9.57
2023-01-08T19:02:58.221Z,9.42
2023-01-08T19:05:25.133Z,9.40
2023-01-08T19:07:51.861Z,9.28
2023-01-08T19:10:18.504Z,9.36
2023-01-08T19:15:17.581Z,9.26
2023-01-08T19:17:44.169Z,9.24
2023-01-08T19:20:11.168Z,9.32
2023-01-08T19:22:37.803Z,9.26
2023-01-08T19:25:04.772Z,9.28
2023-01-08T19:27:31.357Z,9.20
2023-01-08T19:29:57.896Z,9.20
2023-01-08T19:32:24.488Z,9.29
2023-01-08T19:34:51.184Z,9.27
2023-01-08T19:37:18.578Z,9.18
2023-01-08T19:39:45.221Z,9.13
2023-01-08T19:42:30.538Z,9.18
2023-01-08T19:47:32.135Z,9.11
2023-01-08T19:49:58.654Z,9.22
2023-01-08T19:52:25.208Z,9.20
2023-01-08T19:54:51.809Z,9.25
2023-01-08T19:57:18.413Z,9.28
2023-01-08T19:59:45.050Z,9.34
2023-01-08T20:02:12.135Z,9.34
2023-01-08T20:04:44.842Z,9.38
2023-01-08T20:07:15.004Z,9.46
2023-01-08T20:09:42.979Z,9.42
2023-01-08T20:12:10.814Z,9.46
2023-01-08T20:14:37.505Z,9.40
2023-01-08T20:17:04.363Z,9.41
2023-01-08T20:19:31.000Z,9.44
2023-01-08T20:21:59.460Z,9.39
2023-01-08T20:24:26.084Z,9.46
2023-01-08T20:26:52.724Z,9.43
2023-01-08T20:29:19.307Z,9.47
2023-01-08T20:31:46.021Z,9.36
2023-01-08T20:34:15.653Z,9.43
2023-01-08T20:36:43.891Z,9.49
2023-01-08T20:39:14.465Z,9.39
2023-01-08T20:41:46.528Z,9.41
2023-01-08T20:44:22.308Z,9.32
2023-01-08T20:46:48.867Z,9.37
2023-01-08T20:49:18.367Z,9.36
2023-01-08T20:51:54.305Z,9.25
2023-01-08T20:54:24.462Z,9.21
2023-01-08T20:56:51.072Z,9.22
2023-01-08T20:59:17.691Z,9.20
2023-01-08T21:01:44.319Z,9.14
2023-01-08T21:04:11.494Z,9.12
2023-01-08T21:06:38.255Z,9.14
2023-01-08T21:09:08.001Z,9.15
2023-01-08T21:11:36.659Z,9.04
2023-01-08T21:14:03.966Z,9.00
2023-01-08T21:16:31.815Z,9.11
2023-01-08T21:18:59.121Z,9.06
2023-01-08T21:21:33.100Z,9.10
2023-01-08T21:24:04.628Z,8.99
2023-01-08T21:26:32.542Z,9.06
2023-01-08T21:29:03.013Z,9.05
2023-01-08T21:31:30.297Z,9.06
2023-01-08T21:33:59.287Z,9.39
2023-01-08T21:36:27.772Z,9.31
2023-01-08T21:38:56.921Z,9.41
2023-01-08T21:41:48.749Z,9.28
2023-01-08T21:44:39.604Z,9.29
2023-01-08T21:47:12.452Z,9.15
2023-01-08T21:52:29.646Z,9.10
2023-01-08T21:54:58.319Z,9.04
2023-01-08T21:57:27.961Z,8.98
2023-01-08T21:59:55.613Z,9.00
2023-01-08T22:02:24.264Z,8.99
2023-01-08T22:04:54.657Z,8.98
2023-01-08T22:07:21.309Z,8.92
2023-01-08T22:09:47.877Z,8.97
2023-01-08T22:12:15.873Z,8.97
2023-01-08T22:14:42.818Z,8.94
2023-01-08T22:17:09.573Z,8.86
2023-01-08T22:19:38.052Z,8.79
2023-01-08T22:22:05.357Z,8.79
2023-01-08T22:24:32.191Z,8.80
2023-01-08T22:26:59.111Z,8.74
2023-01-08T22:29:25.774Z,8.60
2023-01-08T22:34:26.421Z,8.51
2023-01-08T22:36:53.196Z,8.56
2023-01-08T22:39:19.753Z,8.54
2023-01-08T22:41:46.357Z,8.60
2023-01-08T22:44:13.338Z,8.70
2023-01-08T22:46:40.264Z,8.66
2023-01-08T22:49:07.659Z,8.59
2023-01-08T22:51:34.227Z,8.53
2023-01-08T22:54:00.838Z,8.42
2023-01-08T22:58:59.463Z,8.49
2023-01-08T23:01:30.091Z,8.43
2023-01-08T23:04:01.012Z,8.32
2023-01-08T23:06:29.886Z,8.31
2023-01-08T23:08:57.475Z,8.37
2023-01-08T23:11:24.304Z,8.30
2023-01-08T23:13:52.105Z,8.33
2023-01-08T23:16:23.591Z,8.42
2023-01-08T23:18:51.218Z,8.36
2023-01-08T23:21:19.484Z,8.37
2023-01-08T23:26:26.263Z,8.43
2023-01-08T23:28:53.902Z,8.42
2023-01-08T23:31:23.483Z,8.49
2023-01-08T23:33:51.079Z,8.47
2023-01-08T23:36:20.985Z,8.51
2023-01-08T23:38:49.485Z,8.53
2023-01-08T23:43:50.387Z,8.55
2023-01-08T23:46:18.138Z,8.51
2023-01-08T23:48:44.904Z,8.58
2023-01-08T23:51:11.523Z,8.58
2023-01-08T23:53:38.310Z,8.57
2023-01-08T23:56:05.334Z,8.61
2023-01-08T23:58:32.021Z,8.58
